createdAt,value
2023-02-05T00:02:27.429Z,1.60
2023-02-05T00:04:57.010Z,1.73
2023-02-05T00:07:24.483Z,1.60
2023-02-05T00:09:51.291Z,1.50
2023-02-05T00:12:18.164Z,1.33
2023-02-05T00:14:44.988Z,1.58
2023-02-05T00:17:11.782Z,2.10
2023-02-05T00:19:38.536Z,2.03
2023-02-05T00:22:05.321Z,2.38
2023-02-05T00:24:32.091Z,1.92
2023-02-05T00:26:59.007Z,1.88
2023-02-05T00:29:25.839Z,1.88
2023-02-05T00:31:53.130Z,1.60
2023-02-05T00:34:20.001Z,1.83
2023-02-05T00:36:47.039Z,2.15
2023-02-05T00:39:14.755Z,1.92
2023-02-05T00:41:41.767Z,2.15
2023-02-05T00:44:08.593Z,2.42
2023-02-05T00:46:35.424Z,2.78
2023-02-05T00:49:02.146Z,1.80
2023-02-05T00:51:28.903Z,2.53
2023-02-05T00:53:55.907Z,2.90
2023-02-05T00:56:22.689Z,1.67
2023-02-05T00:58:51.222Z,2.30
2023-02-05T01:01:18.118Z,2.20
2023-02-05T01:03:44.966Z,1.77
2023-02-05T01:06:12.332Z,2.13
2023-02-05T01:08:39.988Z,2.45
2023-02-05T01:11:09.514Z,1.80
2023-02-05T01:13:37.277Z,2.08
2023-02-05T01:16:04.770Z,1.95
2023-02-05T01:18:31.734Z,2.45
2023-02-05T01:20:59.316Z,2.40
2023-02-05T01:23:26.224Z,2.88
2023-02-05T01:25:53.088Z,2.47
2023-02-05T01:28:19.816Z,2.30
2023-02-05T01:30:51.189Z,2.05
2023-02-05T01:33:19.053Z,1.80
2023-02-05T01:35:46.092Z,1.85
2023-02-05T01:38:13.300Z,2.65
2023-02-05T01:40:40.206Z,2.42
2023-02-05T01:43:13.550Z,1.85
2023-02-05T01:46:05.815Z,2.10
2023-02-05T01:48:40.763Z,3.03
2023-02-05T01:51:09.545Z,1.83
2023-02-05T01:53:37.281Z,2.00
2023-02-05T01:56:11.689Z,2.75
2023-02-05T01:58:47.536Z,2.40
2023-02-05T02:01:14.444Z,2.97
2023-02-05T02:03:41.410Z,2.30
2023-02-05T02:06:09.678Z,2.00
2023-02-05T02:08:36.436Z,2.03
2023-02-05T02:11:05.453Z,2.63
2023-02-05T02:13:33.846Z,1.58
2023-02-05T02:16:05.081Z,2.33
2023-02-05T02:18:33.451Z,2.45
2023-02-05T02:21:03.253Z,1.90
2023-02-05T02:24:13.763Z,1.52
2023-02-05T02:26:48.568Z,1.77
2023-02-05T02:29:23.556Z,1.52
2023-02-05T02:32:19.945Z,1.83
2023-02-05T02:34:54.906Z,1.55
2023-02-05T02:37:26.120Z,1.40
2023-02-05T02:40:08.025Z,1.83
2023-02-05T02:43:01.803Z,2.22
2023-02-05T02:45:31.518Z,1.25
2023-02-05T02:48:00.599Z,1.83
2023-02-05T02:50:36.073Z,1.38
2023-02-05T02:53:09.629Z,1.77
2023-02-05T02:55:38.978Z,2.33
2023-02-05T02:58:10.600Z,2.25
2023-02-05T03:00:38.184Z,2.83
2023-02-05T03:03:07.051Z,2.63
2023-02-05T03:05:35.995Z,2.15
2023-02-05T03:08:08.114Z,2.58
2023-02-05T03:11:01.333Z,2.47
2023-02-05T03:13:29.772Z,1.90
2023-02-05T03:16:00.496Z,1.92
2023-02-05T03:18:27.361Z,2.63
2023-02-05T03:21:00.680Z,2.15
2023-02-05T03:23:28.305Z,2.65
2023-02-05T03:25:56.410Z,1.88
2023-02-05T03:28:31.994Z,1.70
2023-02-05T03:31:14.808Z,2.25
2023-02-05T03:34:04.739Z,1.70
2023-02-05T03:36:40.940Z,1.88
2023-02-05T03:39:33.661Z,1.70
2023-02-05T03:42:22.310Z,2.20
2023-02-05T03:45:13.338Z,1.90
2023-02-05T03:47:49.593Z,1.63
2023-02-05T03:50:40.493Z,1.92
2023-02-05T03:53:24.300Z,1.83
2023-02-05T03:56:13.646Z,2.33
2023-02-05T03:58:43.555Z,1.70
2023-02-05T04:01:11.842Z,1.63
2023-02-05T04:03:39.757Z,2.55
2023-02-05T04:06:07.619Z,1.33
2023-02-05T04:08:35.056Z,1.50
2023-02-05T04:11:02.820Z,1.40
2023-02-05T04:13:29.738Z,1.10
2023-02-05T04:15:57.798Z,1.85
2023-02-05T04:18:24.746Z,1.60
2023-02-05T04:20:51.522Z,1.38
2023-02-05T04:23:22.594Z,1.52
2023-02-05T04:25:54.560Z,1.52
2023-02-05T04:28:25.895Z,1.40
2023-02-05T04:30:53.454Z,1.70
2023-02-05T04:33:20.462Z,1.23
2023-02-05T04:35:47.296Z,1.23
2023-02-05T04:38:15.247Z,2.20
2023-02-05T04:40:42.207Z,1.85
2023-02-05T04:43:09.210Z,1.75
2023-02-05T04:45:36.470Z,1.55
2023-02-05T04:48:03.586Z,1.67
2023-02-05T04:50:30.453Z,1.50
2023-02-05T04:52:57.175Z,1.52
2023-02-05T04:55:24.090Z,1.13
2023-02-05T04:57:52.574Z,1.33
2023-02-05T05:00:19.880Z,1.70
2023-02-05T05:02:46.677Z,2.35
2023-02-05T05:05:13.961Z,1.85
2023-02-05T05:07:40.759Z,1.10
2023-02-05T05:10:08.279Z,1.67
2023-02-05T05:12:36.305Z,1.85
2023-02-05T05:15:04.292Z,1.77
2023-02-05T05:17:31.330Z,1.70
2023-02-05T05:19:58.160Z,0.98
2023-02-05T05:22:24.893Z,1.90
2023-02-05T05:24:51.715Z,1.55
2023-02-05T05:27:18.794Z,1.27
2023-02-05T05:29:46.564Z,1.55
2023-02-05T05:32:14.067Z,1.65
2023-02-05T05:34:40.890Z,1.77
2023-02-05T05:37:07.664Z,1.80
2023-02-05T05:39:53.246Z,1.90
2023-02-05T05:42:38.740Z,1.52
2023-02-05T05:45:05.919Z,1.55
2023-02-05T05:47:32.671Z,1.30
2023-02-05T05:49:59.420Z,2.47
2023-02-05T05:52:26.268Z,1.63
2023-02-05T05:54:53.145Z,2.10
2023-02-05T05:57:21.013Z,1.98
2023-02-05T05:59:47.884Z,2.50
2023-02-05T06:02:14.664Z,2.33
2023-02-05T06:04:43.765Z,1.92
2023-02-05T06:07:10.547Z,2.53
2023-02-05T06:09:37.442Z,3.58
2023-02-05T06:12:04.287Z,1.77
2023-02-05T06:14:31.123Z,1.65
2023-02-05T06:16:57.867Z,1.45
2023-02-05T06:19:24.663Z,1.65
2023-02-05T06:21:51.453Z,1.48
2023-02-05T06:24:18.270Z,2.72
2023-02-05T06:26:44.998Z,2.10
2023-02-05T06:29:11.771Z,2.50
2023-02-05T06:31:38.584Z,2.00
2023-02-05T06:34:05.385Z,1.30
2023-02-05T06:36:32.136Z,2.47
2023-02-05T06:38:59.042Z,2.13
2023-02-05T06:41:25.784Z,2.00
2023-02-05T06:43:52.630Z,1.45
2023-02-05T06:46:19.513Z,2.42
2023-02-05T06:48:46.310Z,1.88
2023-02-05T06:51:13.667Z,1.60
2023-02-05T06:53:40.534Z,1.88
2023-02-05T06:56:07.551Z,2.05
2023-02-05T06:58:34.431Z,2.30
2023-02-05T07:01:02.266Z,2.45
2023-02-05T07:03:29.136Z,2.63
2023-02-05T07:05:55.894Z,2.17
2023-02-05T07:08:22.727Z,2.15
2023-02-05T07:10:49.469Z,1.60
2023-02-05T07:13:16.255Z,1.80
2023-02-05T07:15:43.084Z,1.83
2023-02-05T07:18:09.931Z,2.00
2023-02-05T07:20:36.971Z,1.77
2023-02-05T07:23:03.860Z,1.42
2023-02-05T07:25:36.332Z,2.05
2023-02-05T07:28:08.448Z,2.45
2023-02-05T07:30:36.158Z,1.55
2023-02-05T07:33:03.706Z,1.90
2023-02-05T07:35:32.110Z,2.13
2023-02-05T07:37:59.434Z,1.75
2023-02-05T07:40:26.323Z,1.95
2023-02-05T07:42:53.150Z,2.45
2023-02-05T07:45:19.941Z,1.60
2023-02-05T07:47:49.891Z,1.45
2023-02-05T07:50:17.586Z,1.30
2023-02-05T07:52:44.389Z,1.20
2023-02-05T07:55:11.251Z,1.58
2023-02-05T07:57:38.080Z,1.55
2023-02-05T08:00:06.162Z,2.70
2023-02-05T08:02:38.963Z,1.95
2023-02-05T08:05:06.219Z,1.00
2023-02-05T08:07:33.023Z,2.38
2023-02-05T08:09:59.886Z,2.20
2023-02-05T08:12:27.172Z,1.90
2023-02-05T08:14:54.026Z,1.55
2023-02-05T08:17:20.933Z,1.45
2023-02-05T08:19:47.753Z,2.08
2023-02-05T08:22:14.497Z,1.88
2023-02-05T08:24:41.275Z,1.67
2023-02-05T08:27:08.215Z,2.65
2023-02-05T08:29:35.071Z,1.98
2023-02-05T08:32:01.926Z,1.83
2023-02-05T08:34:28.904Z,2.55
2023-02-05T08:36:57.228Z,1.60
2023-02-05T08:39:26.114Z,1.88
2023-02-05T08:41:53.703Z,2.40
2023-02-05T08:44:21.190Z,1.35
2023-02-05T08:46:50.442Z,1.55
2023-02-05T08:49:17.723Z,3.08
2023-02-05T08:51:44.428Z,2.63
2023-02-05T08:54:13.444Z,2.83
2023-02-05T08:56:41.214Z,3.10
2023-02-05T08:59:09.250Z,1.88
2023-02-05T09:01:43.337Z,2.90
2023-02-05T09:04:17.643Z,2.08
2023-02-05T09:06:45.013Z,2.00
2023-02-05T09:09:12.453Z,3.75
2023-02-05T09:11:39.537Z,1.90
2023-02-05T09:14:06.918Z,2.05
2023-02-05T09:16:34.280Z,2.70
2023-02-05T09:19:01.164Z,2.85
2023-02-05T09:21:28.051Z,2.10
2023-02-05T09:23:55.065Z,1.77
2023-02-05T09:26:22.003Z,1.77
2023-02-05T09:28:48.712Z,1.80
2023-02-05T09:31:18.044Z,1.60
2023-02-05T09:33:46.452Z,2.38
2023-02-05T09:36:14.941Z,2.40
2023-02-05T09:38:42.273Z,2.10
2023-02-05T09:41:11.571Z,2.65
2023-02-05T09:43:55.026Z,2.53
2023-02-05T09:46:37.752Z,3.15
2023-02-05T09:49:27.524Z,3.80
2023-02-05T09:52:01.847Z,2.95
2023-02-05T09:54:39.189Z,3.20
2023-02-05T09:57:10.583Z,3.67
2023-02-05T09:59:37.539Z,3.05
2023-02-05T10:02:18.365Z,2.42
2023-02-05T10:04:45.198Z,2.92
2023-02-05T10:07:33.924Z,2.90
2023-02-05T10:10:26.543Z,2.78
2023-02-05T10:13:13.442Z,2.42
2023-02-05T10:16:08.189Z,2.25
2023-02-05T10:18:53.695Z,2.40
2023-02-05T10:21:20.425Z,1.67
2023-02-05T10:23:49.983Z,3.25
2023-02-05T10:26:20.770Z,2.50
2023-02-05T10:29:06.972Z,2.30
2023-02-05T10:31:37.235Z,1.80
2023-02-05T10:34:31.381Z,2.97
2023-02-05T10:36:58.619Z,1.80
2023-02-05T10:39:28.135Z,3.63
2023-02-05T10:42:07.149Z,2.75
2023-02-05T10:44:44.286Z,2.95
2023-02-05T10:47:19.149Z,3.65
2023-02-05T10:49:54.652Z,2.22
2023-02-05T10:52:22.276Z,3.08
2023-02-05T10:54:49.232Z,3.00
2023-02-05T10:57:22.993Z,2.60
2023-02-05T10:59:54.483Z,2.00
2023-02-05T11:02:22.502Z,2.42
2023-02-05T11:04:57.222Z,2.75
2023-02-05T11:07:37.395Z,1.65
2023-02-05T11:10:22.368Z,2.37
2023-02-05T11:12:51.760Z,2.85
2023-02-05T11:15:25.293Z,2.17
2023-02-05T11:18:00.609Z,2.33
2023-02-05T11:20:38.633Z,1.98
2023-02-05T11:23:06.998Z,2.58
2023-02-05T11:25:33.883Z,1.92
2023-02-05T11:28:03.771Z,2.38
2023-02-05T11:30:50.441Z,3.67
2023-02-05T11:33:19.191Z,7.95
2023-02-05T11:36:04.444Z,5.32
2023-02-05T11:38:36.748Z,5.50
2023-02-05T11:41:06.667Z,5.53
2023-02-05T11:43:39.085Z,8.30
2023-02-05T11:46:08.701Z,6.60
2023-02-05T11:48:45.236Z,4.88
2023-02-05T11:51:15.319Z,3.05
2023-02-05T11:53:54.905Z,2.43
2023-02-05T11:56:25.680Z,2.55
2023-02-05T11:59:03.961Z,2.35
2023-02-05T12:01:33.945Z,2.00
2023-02-05T12:04:14.691Z,2.80
2023-02-05T12:06:52.650Z,1.88
2023-02-05T12:09:24.669Z,2.10
2023-02-05T12:12:18.649Z,2.22
2023-02-05T12:15:10.244Z,1.65
2023-02-05T12:17:42.495Z,2.58
2023-02-05T12:20:28.204Z,2.47
2023-02-05T12:23:13.629Z,2.20
2023-02-05T12:25:50.420Z,2.80
2023-02-05T12:28:50.835Z,2.33
2023-02-05T12:31:36.425Z,3.47
2023-02-05T12:34:24.838Z,2.10
2023-02-05T12:36:59.156Z,2.58
2023-02-05T12:39:39.592Z,1.92
2023-02-05T12:42:27.416Z,2.25
2023-02-05T12:45:15.595Z,1.95
2023-02-05T12:47:54.364Z,2.92
2023-02-05T12:50:40.026Z,2.22
2023-02-05T12:53:22.077Z,2.50
2023-02-05T12:56:27.496Z,3.22
2023-02-05T12:59:03.550Z,2.38
2023-02-05T13:01:42.064Z,2.63
2023-02-05T13:04:21.652Z,2.92
2023-02-05T13:06:56.165Z,2.67
2023-02-05T13:09:37.262Z,2.55
2023-02-05T13:14:55.932Z,2.22
2023-02-05T13:17:26.360Z,2.30
2023-02-05T13:19:58.466Z,2.03
2023-02-05T13:22:53.065Z,1.92
2023-02-05T13:25:44.534Z,2.53
2023-02-05T13:28:41.881Z,2.10
2023-02-05T13:31:38.671Z,2.17
2023-02-05T13:34:10.388Z,2.30
2023-02-05T13:37:14.184Z,2.70
2023-02-05T13:39:57.851Z,2.67
2023-02-05T13:42:47.813Z,2.60
2023-02-05T13:45:36.649Z,2.88
2023-02-05T13:48:31.136Z,2.60
2023-02-05T13:51:09.168Z,3.05
2023-02-05T13:53:51.253Z,1.95
2023-02-05T13:56:26.831Z,2.25
2023-02-05T13:58:57.586Z,2.63
2023-02-05T14:01:29.737Z,1.63
2023-02-05T14:04:05.869Z,2.05
2023-02-05T14:06:35.964Z,1.98
2023-02-05T14:09:08.973Z,2.17
2023-02-05T14:11:55.936Z,2.03
2023-02-05T14:14:26.811Z,2.47
2023-02-05T14:16:55.176Z,2.05
2023-02-05T14:19:25.876Z,2.15
2023-02-05T14:21:55.652Z,3.22
2023-02-05T14:24:25.446Z,2.33
2023-02-05T14:26:53.937Z,3.17
2023-02-05T14:29:42.605Z,3.38
2023-02-05T14:32:13.887Z,3.70
2023-02-05T14:34:40.598Z,3.63
2023-02-05T14:37:43.132Z,3.38
2023-02-05T14:40:22.368Z,3.53
2023-02-05T14:42:53.251Z,4.82
2023-02-05T14:47:47.662Z,3.50
2023-02-05T14:50:27.931Z,3.38
2023-02-05T14:53:04.836Z,3.33
2023-02-05T14:55:40.258Z,2.85
2023-02-05T14:58:18.886Z,4.22
2023-02-05T15:00:45.826Z,3.30
2023-02-05T15:03:12.537Z,3.30
2023-02-05T15:05:45.478Z,3.10
2023-02-05T15:08:41.446Z,3.53
2023-02-05T15:11:28.150Z,3.30
2023-02-05T15:14:20.193Z,2.60
2023-02-05T15:17:07.417Z,2.55
2023-02-05T15:19:44.210Z,2.33
2023-02-05T15:22:37.640Z,2.85
2023-02-05T15:25:21.633Z,1.70
2023-02-05T15:27:55.800Z,2.88
2023-02-05T15:30:26.413Z,2.00
2023-02-05T15:32:59.638Z,1.90
2023-02-05T15:35:29.263Z,2.33
2023-02-05T15:37:58.926Z,1.90
2023-02-05T15:40:27.548Z,2.67
2023-02-05T15:43:15.249Z,2.20
2023-02-05T15:45:45.205Z,1.90
2023-02-05T15:48:14.708Z,2.20
2023-02-05T15:50:50.056Z,1.88
2023-02-05T15:53:33.291Z,2.15
2023-02-05T15:56:17.007Z,2.28
2023-02-05T15:59:10.147Z,3.10
2023-02-05T16:01:46.879Z,2.10
2023-02-05T16:04:40.144Z,2.65
2023-02-05T16:07:37.450Z,2.30
2023-02-05T16:10:20.630Z,1.92
2023-02-05T16:13:01.035Z,1.50
2023-02-05T16:15:32.993Z,2.20
2023-02-05T16:18:00.111Z,2.45
2023-02-05T16:20:30.314Z,1.80
2023-02-05T16:23:00.377Z,2.05
2023-02-05T16:25:29.827Z,1.92
2023-02-05T16:27:57.858Z,1.92
2023-02-05T16:30:40.990Z,1.63
2023-02-05T16:33:37.647Z,1.35
2023-02-05T16:36:07.151Z,1.92
2023-02-05T16:38:35.531Z,1.40
2023-02-05T16:41:18.523Z,1.80
2023-02-05T16:43:45.422Z,1.80
2023-02-05T16:46:13.984Z,1.02
2023-02-05T16:48:49.789Z,1.40
2023-02-05T16:51:41.020Z,1.25
2023-02-05T16:57:03.514Z,1.33
2023-02-05T16:59:38.057Z,1.40
2023-02-05T17:02:05.489Z,1.60
2023-02-05T17:04:37.009Z,1.58
2023-02-05T17:07:07.123Z,1.42
2023-02-05T17:09:36.876Z,2.13
2023-02-05T17:12:22.298Z,1.42
2023-02-05T17:15:03.627Z,1.98
2023-02-05T17:17:31.622Z,1.15
2023-02-05T17:20:20.737Z,1.20
2023-02-05T17:23:05.718Z,1.17
2023-02-05T17:25:42.089Z,1.50
2023-02-05T17:28:17.289Z,2.00
2023-02-05T17:30:45.708Z,1.85
2023-02-05T17:33:17.601Z,1.00
2023-02-05T17:35:44.564Z,1.17
2023-02-05T17:38:11.701Z,1.63
2023-02-05T17:40:38.603Z,1.40
2023-02-05T17:43:05.346Z,1.25
2023-02-05T17:45:35.006Z,1.25
2023-02-05T17:48:01.996Z,0.90
2023-02-05T17:50:29.390Z,0.75
2023-02-05T17:52:56.183Z,1.00
2023-02-05T17:55:23.425Z,1.17
2023-02-05T17:57:50.154Z,1.67
2023-02-05T18:00:21.368Z,1.25
2023-02-05T18:02:48.157Z,1.17
2023-02-05T18:05:15.030Z,1.27
2023-02-05T18:07:46.029Z,1.15
2023-02-05T18:12:44.425Z,1.50
2023-02-05T18:15:11.897Z,1.20
2023-02-05T18:17:39.062Z,1.52
2023-02-05T18:20:06.085Z,1.48
2023-02-05T18:22:33.533Z,1.25
2023-02-05T18:25:00.445Z,1.33
2023-02-05T18:27:27.532Z,1.38
2023-02-05T18:29:54.604Z,1.42
2023-02-05T18:32:22.173Z,2.28
2023-02-05T18:34:49.317Z,1.80
2023-02-05T18:37:16.737Z,1.52
2023-02-05T18:39:44.023Z,1.60
2023-02-05T18:42:12.912Z,1.88
2023-02-05T18:44:39.985Z,1.63
2023-02-05T18:47:07.479Z,1.95
2023-02-05T18:49:35.199Z,1.95
2023-02-05T18:52:02.718Z,1.77
2023-02-05T18:54:29.719Z,1.98
2023-02-05T18:56:57.086Z,2.90
2023-02-05T18:59:25.739Z,2.22
2023-02-05T19:01:52.895Z,2.03
2023-02-05T19:04:21.009Z,1.60
2023-02-05T19:06:53.530Z,1.67
2023-02-05T19:09:22.031Z,1.58
2023-02-05T19:11:49.530Z,1.90
2023-02-05T19:14:18.918Z,2.15
2023-02-05T19:16:47.244Z,1.83
2023-02-05T19:19:21.119Z,2.33
2023-02-05T19:21:51.190Z,1.95
2023-02-05T19:24:18.886Z,1.80
2023-02-05T19:26:45.804Z,1.95
2023-02-05T19:29:15.148Z,1.40
2023-02-05T19:31:42.649Z,1.30
2023-02-05T19:34:09.583Z,1.40
2023-02-05T19:36:36.676Z,1.45
2023-02-05T19:39:05.980Z,1.80
2023-02-05T19:41:35.196Z,1.75
2023-02-05T19:44:04.614Z,1.77
2023-02-05T19:46:35.000Z,1.92
2023-02-05T19:49:05.629Z,2.15
2023-02-05T19:51:33.329Z,2.08
2023-02-05T19:54:03.021Z,1.70
2023-02-05T19:56:30.632Z,1.90
2023-02-05T19:58:57.459Z,2.10
2023-02-05T20:01:27.027Z,2.10
2023-02-05T20:03:56.373Z,2.38
2023-02-05T20:06:24.835Z,2.28
2023-02-05T20:08:52.261Z,1.90
2023-02-05T20:11:19.518Z,2.10
2023-02-05T20:13:46.677Z,1.90
2023-02-05T20:16:16.598Z,2.10
2023-02-05T20:18:44.152Z,1.70
2023-02-05T20:21:13.696Z,2.55
2023-02-05T20:23:40.881Z,2.10
2023-02-05T20:26:08.737Z,1.60
2023-02-05T20:28:56.176Z,1.55
2023-02-05T20:31:33.282Z,2.33
2023-02-05T20:34:05.110Z,1.85
2023-02-05T20:36:33.237Z,3.38
2023-02-05T20:39:01.496Z,2.03
2023-02-05T20:41:28.308Z,1.77
2023-02-05T20:43:56.772Z,1.95
2023-02-05T20:46:24.171Z,2.03
2023-02-05T20:48:51.279Z,1.98
2023-02-05T20:51:20.515Z,2.05
2023-02-05T20:53:47.818Z,1.80
2023-02-05T20:56:17.098Z,1.70
2023-02-05T20:58:44.311Z,1.20
2023-02-05T21:01:15.269Z,1.63
2023-02-05T21:03:44.642Z,1.10
2023-02-05T21:06:12.128Z,1.40
2023-02-05T21:08:43.518Z,1.52
2023-02-05T21:11:10.806Z,1.95
2023-02-05T21:13:37.552Z,1.40
2023-02-05T21:16:05.060Z,1.30
2023-02-05T21:18:31.996Z,1.55
2023-02-05T21:21:07.073Z,1.65
2023-02-05T21:23:34.360Z,1.48
2023-02-05T21:26:01.214Z,1.42
2023-02-05T21:28:28.657Z,2.22
2023-02-05T21:31:07.097Z,1.40
2023-02-05T21:33:35.433Z,2.00
2023-02-05T21:36:07.504Z,1.98
2023-02-05T21:38:35.665Z,2.10
2023-02-05T21:41:13.459Z,2.05
2023-02-05T21:43:40.854Z,2.47
2023-02-05T21:46:12.509Z,2.00
2023-02-05T21:48:39.921Z,2.50
2023-02-05T21:51:12.493Z,2.55
2023-02-05T21:53:39.995Z,2.38
2023-02-05T21:56:09.717Z,1.90
2023-02-05T21:58:38.375Z,1.95
2023-02-05T22:01:17.039Z,1.52
2023-02-05T22:03:48.431Z,2.28
2023-02-05T22:06:15.491Z,1.90
2023-02-05T22:08:42.399Z,1.60
2023-02-05T22:11:11.233Z,1.80
2023-02-05T22:13:40.595Z,2.55
2023-02-05T22:16:17.747Z,1.10
2023-02-05T22:18:44.970Z,1.45
2023-02-05T22:21:35.080Z,1.80
2023-02-05T22:24:04.021Z,1.73
2023-02-05T22:26:34.213Z,1.55
2023-02-05T22:29:02.981Z,1.40
2023-02-05T22:31:31.684Z,1.20
2023-02-05T22:33:59.881Z,1.33
2023-02-05T22:36:29.151Z,1.02
2023-02-05T22:38:57.746Z,1.10
2023-02-05T22:41:31.138Z,1.30
2023-02-05T22:44:00.123Z,1.27
2023-02-05T22:46:38.398Z,0.90
2023-02-05T22:49:05.331Z,1.17
2023-02-05T22:51:37.453Z,1.70
2023-02-05T22:54:11.184Z,2.15
2023-02-05T22:56:38.552Z,1.40
2023-02-05T22:59:05.884Z,1.13
2023-02-05T23:01:34.568Z,1.17
2023-02-05T23:04:06.611Z,1.27
2023-02-05T23:06:36.415Z,2.00
2023-02-05T23:09:13.675Z,1.35
2023-02-05T23:11:45.858Z,1.30
2023-02-05T23:14:15.485Z,1.45
2023-02-05T23:16:45.668Z,1.50
2023-02-05T23:21:44.821Z,1.00
2023-02-05T23:24:13.964Z,1.60
2023-02-05T23:26:44.588Z,1.25
2023-02-05T23:29:14.768Z,2.00
2023-02-05T23:31:42.189Z,1.70
2023-02-05T23:34:10.459Z,1.33
2023-02-05T23:36:37.534Z,1.15
2023-02-05T23:39:06.044Z,1.52
2023-02-05T23:41:37.813Z,1.50
2023-02-05T23:44:22.405Z,1.02
2023-02-05T23:46:51.176Z,1.60
2023-02-05T23:49:23.400Z,1.90
2023-02-05T23:51:52.411Z,1.60
2023-02-05T23:54:21.506Z,1.70
2023-02-05T23:56:49.292Z,1.40
2023-02-05T23:59:16.675Z,2.13
